Queen Of Nanaimo — VCNX — position and weather

sailwx.info

Track history (hours):
 
Tides and Currents Weather Stations Pressure Air Temp Water Temp Dewpoint Dewpoint Depression Visibility Wind Speed Wind Dir Waves Ship Positions

Queen Of Nanaimo

Last reported at 2016-Dec-03 08:28 UTC. Time now 2016-Dec-03 13:45 UTC.
Position N 48°51' W 123°27'.

Length 130 m; draft 4 m.

Type: Passenger vessel. MMSI: 316001254.

Date/timePositionNaut miles runAvg speedWind from/ knotsBaromVisibWave heightAir tempDewpointWater temp
2016-Dec-03 08:28N 48°51' W 123°27'1 0.3
2016-Dec-03 06:27N 48°51' W 123°26'4 4.5
2016-Dec-03 05:33N 48°50' W 123°20'3 3.0
2016-Dec-03 04:33N 48°53' W 123°19'1110.8
2016-Dec-03 03:34N 49°00' W 123°08'0 0.0
2016-Dec-03 02:33N 49°00' W 123°08'1110.7
2016-Dec-03 01:33N 48°53' W 123°19'2 1.9
2016-Dec-03 00:33N 48°51' W 123°20'3 3.5
2016-Dec-02 23:33N 48°49' W 123°24'3 2.4
2016-Dec-02 22:28N 48°51' W 123°27'0 0.0
2016-Dec-02 21:32N 48°51' W 123°27'6 5.8
2016-Dec-02 20:33N 48°48' W 123°20'3 2.8
2016-Dec-02 19:33N 48°51' W 123°20'7 7.3
2016-Dec-02 18:34N 48°57' W 123°13'5 5.2
2016-Dec-02 17:33N 49°00' W 123°08'9 9.4
2016-Dec-02 16:33N 48°53' W 123°17'3 2.9
2016-Dec-02 15:31N 48°51' W 123°20'3 3.6
2016-Dec-02 14:33N 48°49' W 123°24'3 2.7
2016-Dec-02 13:30N 48°51' W 123°27'0 0.0
2016-Dec-02 12:24N 48°51' W 123°27'0 0.0
2016-Dec-02 11:21N 48°51' W 123°27'0 0.0
2016-Dec-02 06:19N 48°51' W 123°27'6 7.1
2016-Dec-02 05:28N 48°48' W 123°19'5 5.0
2016-Dec-02 04:33N 48°53' W 123°19'9 8.8
2016-Dec-02 03:33N 48°59' W 123°10'2 1.8
2016-Dec-02 02:33N 49°00' W 123°08'1110.8
2016-Dec-02 01:33N 48°53' W 123°19'2 1.8
2016-Dec-02 00:29N 48°51' W 123°20'4 3.9
2016-Dec-01 23:33N 48°50' W 123°25'1 0.6
2016-Dec-01 21:06N 48°51' W 123°27'610.7
2016-Dec-01 20:33N 48°48' W 123°19'4 3.9
2016-Dec-01 19:33N 48°52' W 123°21'8 8.1
2016-Dec-01 18:33N 48°58' W 123°12'4 4.0
2016-Dec-01 17:33N 49°00' W 123°08'11 8.4
2016-Dec-01 16:17N 48°53' W 123°19'1 0.0
2016-Dec-01 04:18N 48°53' W 123°18'811.0
2016-Dec-01 03:33N 48°59' W 123°10'2 1.8
2016-Dec-01 02:29N 49°00' W 123°08'4 0.5
2016-Nov-30 18:33N 48°58' W 123°13'4 3.9
2016-Nov-30 17:29N 49°00' W 123°08'11 0.8
2016-Nov-30 04:25N 48°53' W 123°19'8 9.6
2016-Nov-30 03:33N 48°58' W 123°10'2 2.5
2016-Nov-30 02:33N 49°00' W 123°08'11 8.2
2016-Nov-30 01:15N 48°52' W 123°18'7 1.1
2016-Nov-29 18:29N 48°58' W 123°12'3 3.6
2016-Nov-29 17:32N 49°00' W 123°08'1010.2
2016-Nov-29 16:32N 48°53' W 123°18'1 0.1
2016-Nov-29 04:14N 48°54' W 123°17'812.2
2016-Nov-29 03:33N 48°60' W 123°08'1 0.9
2016-Nov-29 02:33N 49°00' W 123°08'3 0.4
2016-Nov-28 18:32N 48°58' W 123°11'3 3.3
2016-Nov-28 17:33N 49°00' W 123°08'9 0.8
2016-Nov-28 06:10N 48°54' W 123°17'914.5
2016-Nov-28 05:33N 49°00' W 123°08'8 7.6
2016-Nov-28 04:33N 48°54' W 123°15'4 3.4
2016-Nov-28 03:27N 48°52' W 123°19'1112.7
2016-Nov-28 02:33N 49°00' W 123°08'5 5.5
2016-Nov-28 01:33N 48°56' W 123°12'6 1.2
2016-Nov-27 20:26N 48°52' W 123°19'7 7.7
2016-Nov-27 19:33N 48°57' W 123°13'5 4.7
2016-Nov-27 18:33N 49°00' W 123°08'10 9.6
2016-Nov-27 17:33N 48°53' W 123°17'1 0.1
2016-Nov-27 05:26N 48°53' W 123°18'1112.0
2016-Nov-27 04:33N 49°00' W 123°08'0 0.0
2016-Nov-27 03:31N 49°00' W 123°08'0 0.0
2016-Nov-27 02:33N 49°00' W 123°08'11 9.3
2016-Nov-27 01:24N 48°52' W 123°18'7 1.4
2016-Nov-26 20:33N 48°58' W 123°12'2 2.0
2016-Nov-26 19:33N 48°59' W 123°09'9 3.9
2016-Nov-26 17:24N 48°53' W 123°19'1112.6
2016-Nov-26 16:33N 49°00' W 123°08'5 5.5
2016-Nov-26 15:33N 48°56' W 123°12'6 0.5
2016-Nov-26 04:30N 48°52' W 123°19'9 9.9
2016-Nov-26 03:34N 48°59' W 123°10'2 1.7
2016-Nov-26 02:33N 49°00' W 123°08'11 9.1
2016-Nov-26 01:24N 48°53' W 123°19'1 0.2
2016-Nov-25 19:24N 48°52' W 123°19'8 8.8
2016-Nov-25 18:32N 48°58' W 123°12'4 3.6
2016-Nov-25 17:29N 49°00' W 123°08'1010.3
2016-Nov-25 16:33N 48°53' W 123°17'1 0.1
2016-Nov-25 04:25N 48°53' W 123°19'910.7
2016-Nov-25 03:33N 48°59' W 123°09'1 1.4
2016-Nov-25 02:31N 49°00' W 123°08'11 9.0
2016-Nov-25 01:20N 48°53' W 123°19'1 0.2
2016-Nov-24 20:27N 48°52' W 123°19'5 5.3
2016-Nov-24 19:34N 48°56' W 123°15'4 0.3
2016-Nov-24 04:19N 48°53' W 123°19'1013.0
2016-Nov-24 03:33N 48°60' W 123°09'1 0.8
2016-Nov-24 02:33N 49°00' W 123°08'11 8.3
2016-Nov-24 01:15N 48°52' W 123°18'0 0.0
2016-Nov-23 19:18N 48°52' W 123°18'9 9.1
2016-Nov-23 18:21N 48°59' W 123°10'2 2.6
2016-Nov-23 17:33N 49°00' W 123°08'10 9.6
2016-Nov-23 16:33N 48°53' W 123°17'  
Track history (hours):
 
Tides and Currents Weather Stations Pressure Air Temp Water Temp Dewpoint Dewpoint Depression Visibility Wind Speed Wind Dir Waves Ship Positions

Queen Of Nanaimo

Last reported at 2016-Dec-03 08:28 UTC. Time now 2016-Dec-03 13:45 UTC.
Position N 48°51' W 123°27'.

Length 130 m; draft 4 m.

Type: Passenger vessel. MMSI: 316001254.

Date/timePositionNaut miles runAvg speedWind from/ knotsBaromVisibWave heightAir tempDewpointWater temp
2016-Dec-03 08:28N 48°51' W 123°27'1 0.3
2016-Dec-03 06:27N 48°51' W 123°26'4 4.5
2016-Dec-03 05:33N 48°50' W 123°20'3 3.0
2016-Dec-03 04:33N 48°53' W 123°19'1110.8
2016-Dec-03 03:34N 49°00' W 123°08'0 0.0
2016-Dec-03 02:33N 49°00' W 123°08'1110.7
2016-Dec-03 01:33N 48°53' W 123°19'2 1.9
2016-Dec-03 00:33N 48°51' W 123°20'3 3.5
2016-Dec-02 23:33N 48°49' W 123°24'3 2.4
2016-Dec-02 22:28N 48°51' W 123°27'0 0.0
2016-Dec-02 21:32N 48°51' W 123°27'6 5.8
2016-Dec-02 20:33N 48°48' W 123°20'3 2.8
2016-Dec-02 19:33N 48°51' W 123°20'7 7.3
2016-Dec-02 18:34N 48°57' W 123°13'5 5.2
2016-Dec-02 17:33N 49°00' W 123°08'9 9.4
2016-Dec-02 16:33N 48°53' W 123°17'3 2.9
2016-Dec-02 15:31N 48°51' W 123°20'3 3.6
2016-Dec-02 14:33N 48°49' W 123°24'3 2.7
2016-Dec-02 13:30N 48°51' W 123°27'0 0.0
2016-Dec-02 12:24N 48°51' W 123°27'0 0.0
2016-Dec-02 11:21N 48°51' W 123°27'0 0.0
2016-Dec-02 06:19N 48°51' W 123°27'6 7.1
2016-Dec-02 05:28N 48°48' W 123°19'5 5.0
2016-Dec-02 04:33N 48°53' W 123°19'9 8.8
2016-Dec-02 03:33N 48°59' W 123°10'2 1.8
2016-Dec-02 02:33N 49°00' W 123°08'1110.8
2016-Dec-02 01:33N 48°53' W 123°19'2 1.8
2016-Dec-02 00:29N 48°51' W 123°20'4 3.9
2016-Dec-01 23:33N 48°50' W 123°25'1 0.6
2016-Dec-01 21:06N 48°51' W 123°27'610.7
2016-Dec-01 20:33N 48°48' W 123°19'4 3.9
2016-Dec-01 19:33N 48°52' W 123°21'8 8.1
2016-Dec-01 18:33N 48°58' W 123°12'4 4.0
2016-Dec-01 17:33N 49°00' W 123°08'11 8.4
2016-Dec-01 16:17N 48°53' W 123°19'1 0.0
2016-Dec-01 04:18N 48°53' W 123°18'811.0
2016-Dec-01 03:33N 48°59' W 123°10'2 1.8
2016-Dec-01 02:29N 49°00' W 123°08'4 0.5
2016-Nov-30 18:33N 48°58' W 123°13'4 3.9
2016-Nov-30 17:29N 49°00' W 123°08'11 0.8
2016-Nov-30 04:25N 48°53' W 123°19'8 9.6
2016-Nov-30 03:33N 48°58' W 123°10'2 2.5
2016-Nov-30 02:33N 49°00' W 123°08'11 8.2
2016-Nov-30 01:15N 48°52' W 123°18'7 1.1
2016-Nov-29 18:29N 48°58' W 123°12'3 3.6
2016-Nov-29 17:32N 49°00' W 123°08'1010.2
2016-Nov-29 16:32N 48°53' W 123°18'1 0.1
2016-Nov-29 04:14N 48°54' W 123°17'812.2
2016-Nov-29 03:33N 48°60' W 123°08'1 0.9
2016-Nov-29 02:33N 49°00' W 123°08'3 0.4
2016-Nov-28 18:32N 48°58' W 123°11'3 3.3
2016-Nov-28 17:33N 49°00' W 123°08'9 0.8
2016-Nov-28 06:10N 48°54' W 123°17'914.5
2016-Nov-28 05:33N 49°00' W 123°08'8 7.6
2016-Nov-28 04:33N 48°54' W 123°15'4 3.4
2016-Nov-28 03:27N 48°52' W 123°19'1112.7
2016-Nov-28 02:33N 49°00' W 123°08'5 5.5
2016-Nov-28 01:33N 48°56' W 123°12'6 1.2
2016-Nov-27 20:26N 48°52' W 123°19'7 7.7
2016-Nov-27 19:33N 48°57' W 123°13'5 4.7
2016-Nov-27 18:33N 49°00' W 123°08'10 9.6
2016-Nov-27 17:33N 48°53' W 123°17'1 0.1
2016-Nov-27 05:26N 48°53' W 123°18'1112.0
2016-Nov-27 04:33N 49°00' W 123°08'0 0.0
2016-Nov-27 03:31N 49°00' W 123°08'0 0.0
2016-Nov-27 02:33N 49°00' W 123°08'11 9.3
2016-Nov-27 01:24N 48°52' W 123°18'7 1.4
2016-Nov-26 20:33N 48°58' W 123°12'2 2.0
2016-Nov-26 19:33N 48°59' W 123°09'9 3.9
2016-Nov-26 17:24N 48°53' W 123°19'1112.6
2016-Nov-26 16:33N 49°00' W 123°08'5 5.5
2016-Nov-26 15:33N 48°56' W 123°12'6 0.5
2016-Nov-26 04:30N 48°52' W 123°19'9 9.9
2016-Nov-26 03:34N 48°59' W 123°10'2 1.7
2016-Nov-26 02:33N 49°00' W 123°08'11 9.1
2016-Nov-26 01:24N 48°53' W 123°19'1 0.2
2016-Nov-25 19:24N 48°52' W 123°19'8 8.8
2016-Nov-25 18:32N 48°58' W 123°12'4 3.6
2016-Nov-25 17:29N 49°00' W 123°08'1010.3
2016-Nov-25 16:33N 48°53' W 123°17'1 0.1
2016-Nov-25 04:25N 48°53' W 123°19'910.7
2016-Nov-25 03:33N 48°59' W 123°09'1 1.4
2016-Nov-25 02:31N 49°00' W 123°08'11 9.0
2016-Nov-25 01:20N 48°53' W 123°19'1 0.2
2016-Nov-24 20:27N 48°52' W 123°19'5 5.3
2016-Nov-24 19:34N 48°56' W 123°15'4 0.3
2016-Nov-24 04:19N 48°53' W 123°19'1013.0
2016-Nov-24 03:33N 48°60' W 123°09'1 0.8
2016-Nov-24 02:33N 49°00' W 123°08'11 8.3
2016-Nov-24 01:15N 48°52' W 123°18'0 0.0
2016-Nov-23 19:18N 48°52' W 123°18'9 9.1
2016-Nov-23 18:21N 48°59' W 123°10'2 2.6
2016-Nov-23 17:33N 49°00' W 123°08'10 9.6
2016-Nov-23 16:33N 48°53' W 123°17'  

Dump ship's entire track history